Saint-Jovite, Quebec

8:22 PM EDT on August 04, 2015 (GMT -0400)
Les Suites De La Gare #858 Mont-Tremblant | | Change Station
CLOSE
Current Station
Personal Weather Station
Location: Mont-Tremblant, QUéBEC
Elevation: 705 ft
Nearby Weather Stations

Elev 705 ft 46.13 °N, 74.59 °W | Updated 35 minutes ago

Partly Cloudy
Partly Cloudy
68.2 °F
Feels Like 68.2 °F
N
0.0
Wind Variable Wind from North

Today
High -- | Low -- °F
--% Chance of Precip.
Yesterday
High -- | Low -- °F
Precip. -- in
5:43 AM 8:24 PM
Waning Gibbous, 73% visible
Pressure 29.81 in
Visibility 45.0 miles
Clouds Few 4000 ft
Few 12000 ft
Few 24000 ft
Dew Point 54 °F
Humidity 60%
Rainfall -999.00 in
Snow Depth Not available.
UV 0 out of 12
Pollen Not available.
Air Quality Not available.
Flu Activity Not available.
METAR CYMX 050000Z 25004KT 190V300 45SM FEW040TCU FEW120 FEW240 20/12 A2981 RMK TCU1AC1CI1 AC TR SLP094 DENSITY ALT 1000FT

More Conditions Fewer Conditions

Pressure 29.81 in
Visibility 45.0 miles
Clouds Few 4000 ft
Few 12000 ft
Few 24000 ft
Dew Point 54 °F
Humidity 60%
Rainfall -999.00 in
Snow Depth Not available.
UV 0 out of 12
Pollen Not available.
Air Quality Not available.
Flu Activity Not available.
METAR CYMX 050000Z 25004KT 190V300 45SM FEW040TCU FEW120 FEW240 20/12 A2981 RMK TCU1AC1CI1 AC TR SLP094 DENSITY ALT 1000FT

More Conditions Fewer Conditions

10-Day Weather Forecast

×

Almanac

Astronomy

Aug. 04, 2015 Rise Set
Actual Time
Civil Twilight
Nautical Twilight
Astronomical Twilight
Moon
Length of Visible Light
Length of Day
Tomorrow will be .
, % of the Moon is Illuminated

Today's Extremes

Country Highs Country Lows

Community

WunderPhotos

Upload Photos

1,844,033 photos uploaded!

WunderBlogs® & News

Nearby

Air Quality

  Air Quality AQ Index Pollutant
Not available.

Snow Depth

Station Depth Elevation

Earthquake Activity

City Distance Mag. Time & Date
Minimum magnitude displayed is 2.5.

Coastal Water Temperatures

Place Temperature

Stations

Nearby Weather Stations

Station Location Temp. Windchill Dew Point Humidity Wind Precip. Elev Updated Type